createdAt,value
2018-03-24T00:01:07.588Z,80.10
2018-03-24T00:03:39.529Z,81.10
2018-03-24T00:06:11.088Z,81.10
2018-03-24T00:08:44.001Z,81.00
2018-03-24T00:11:15.822Z,81.40
2018-03-24T00:13:46.863Z,81.30
2018-03-24T00:16:17.691Z,80.90
2018-03-24T00:18:48.573Z,80.70
2018-03-24T00:21:18.995Z,81.50
2018-03-24T00:23:50.602Z,80.40
2018-03-24T00:26:22.457Z,80.40
2018-03-24T00:28:57.583Z,81.10
2018-03-24T00:31:35.719Z,81.10
2018-03-24T00:34:07.478Z,81.30
2018-03-24T00:36:42.974Z,81.00
2018-03-24T00:39:14.104Z,81.20
2018-03-24T00:41:44.746Z,79.80
2018-03-24T00:44:15.866Z,80.60
2018-03-24T00:46:46.968Z,80.80
2018-03-24T00:49:18.369Z,80.80
2018-03-24T00:51:49.659Z,81.60
2018-03-24T00:54:22.176Z,81.50
2018-03-24T00:56:53.089Z,82.10
2018-03-24T00:59:23.927Z,82.70
2018-03-24T01:01:55.054Z,82.20
2018-03-24T01:04:28.594Z,82.70
2018-03-24T01:16:18.733Z,81.90
2018-03-24T01:18:54.871Z,82.30
2018-03-24T01:21:28.681Z,85.20
2018-03-24T01:23:59.706Z,85.30
2018-03-24T01:26:31.730Z,85.80
2018-03-24T01:29:03.173Z,85.80
2018-03-24T01:31:35.293Z,85.90
2018-03-24T01:34:08.630Z,85.80
2018-03-24T01:36:48.728Z,87.10
2018-03-24T01:39:28.172Z,87.10
2018-03-24T01:41:59.727Z,86.50
2018-03-24T01:44:36.039Z,86.20
2018-03-24T01:47:13.031Z,87.10
2018-03-24T01:49:43.963Z,86.80
2018-03-24T01:52:14.842Z,88.10
2018-03-24T01:54:51.902Z,88.10
2018-03-24T01:57:36.126Z,88.70
2018-03-24T02:00:07.491Z,90.10
2018-03-24T02:02:37.769Z,90.10
2018-03-24T02:05:08.016Z,90.40
2018-03-24T02:07:38.105Z,90.70
2018-03-24T02:10:08.098Z,91.00
2018-03-24T02:12:38.344Z,91.10
2018-03-24T02:15:08.988Z,91.30
2018-03-24T02:17:53.989Z,91.60
2018-03-24T02:20:34.032Z,91.90
2018-03-24T02:23:04.378Z,92.20
2018-03-24T02:25:36.236Z,92.40
2018-03-24T02:28:06.440Z,92.60
2018-03-24T02:30:38.014Z,93.00
2018-03-24T02:33:08.383Z,93.30
2018-03-24T02:35:38.914Z,93.20
2018-03-24T02:38:08.992Z,93.50
2018-03-24T02:40:44.085Z,93.70
2018-03-24T02:43:15.330Z,93.90
2018-03-24T02:45:57.737Z,93.90
2018-03-24T02:48:43.070Z,94.10
2018-03-24T02:51:15.618Z,94.20
2018-03-24T02:53:49.126Z,94.50
2018-03-24T02:56:30.752Z,94.80
2018-03-24T02:59:08.776Z,94.80
2018-03-24T03:01:39.012Z,94.90
2018-03-24T03:04:10.875Z,95.00
2018-03-24T03:06:40.759Z,95.10
2018-03-24T03:09:11.993Z,95.30
2018-03-24T03:11:42.504Z,95.20
2018-03-24T03:14:12.951Z,95.20
2018-03-24T03:16:42.863Z,95.20
2018-03-24T03:19:12.969Z,95.30
2018-03-24T03:21:49.225Z,95.30
2018-03-24T03:24:19.713Z,95.40
2018-03-24T03:26:49.386Z,95.40
2018-03-24T03:29:19.149Z,95.50
2018-03-24T03:31:49.540Z,95.70
2018-03-24T03:34:19.127Z,95.70
2018-03-24T03:36:48.797Z,95.70
2018-03-24T03:39:20.864Z,95.80
2018-03-24T03:41:51.394Z,95.80
2018-03-24T03:44:22.015Z,95.90
2018-03-24T03:46:51.818Z,95.90
2018-03-24T03:49:21.422Z,95.90
2018-03-24T03:51:52.304Z,95.90
2018-03-24T03:54:21.798Z,95.90
2018-03-24T03:56:51.860Z,95.90
2018-03-24T03:59:21.741Z,95.90
2018-03-24T04:01:51.380Z,95.90
2018-03-24T04:04:20.777Z,95.90
2018-03-24T04:06:50.505Z,95.90
2018-03-24T04:09:20.043Z,96.00
2018-03-24T04:11:53.621Z,96.10
2018-03-24T04:14:23.986Z,96.10
2018-03-24T04:16:53.483Z,96.00
2018-03-24T04:19:23.849Z,95.90
2018-03-24T04:21:53.238Z,95.90
2018-03-24T04:24:22.679Z,95.90
2018-03-24T04:26:52.953Z,96.00
2018-03-24T04:29:22.512Z,96.00
2018-03-24T04:31:52.869Z,96.00
2018-03-24T04:34:23.089Z,96.00
2018-03-24T04:36:52.639Z,96.00
2018-03-24T04:39:22.374Z,95.90
2018-03-24T04:41:51.777Z,95.80
2018-03-24T04:44:28.557Z,95.80
2018-03-24T04:46:58.851Z,95.70
2018-03-24T04:49:28.461Z,95.70
2018-03-24T04:51:58.003Z,95.80
2018-03-24T04:54:27.363Z,95.70
2018-03-24T04:56:58.180Z,95.80
2018-03-24T04:59:27.894Z,95.70
2018-03-24T05:01:57.723Z,95.50
2018-03-24T05:04:27.379Z,95.50
2018-03-24T05:06:57.631Z,95.10
2018-03-24T05:09:27.188Z,95.10
2018-03-24T05:11:57.434Z,94.90
2018-03-24T05:14:27.733Z,94.90
2018-03-24T05:16:59.425Z,94.90
2018-03-24T05:19:32.537Z,94.90
2018-03-24T05:22:03.219Z,94.70
2018-03-24T05:24:32.835Z,94.80
2018-03-24T05:27:03.041Z,94.60
2018-03-24T05:29:33.514Z,94.60
2018-03-24T05:32:03.214Z,94.60
2018-03-24T05:34:33.594Z,94.50
2018-03-24T05:37:03.071Z,94.40
2018-03-24T05:39:32.554Z,94.50
2018-03-24T05:42:02.145Z,94.70
2018-03-24T05:44:31.628Z,94.80
2018-03-24T05:47:01.930Z,94.70
2018-03-24T05:49:31.595Z,94.80
2018-03-24T05:55:01.838Z,94.60
2018-03-24T05:57:31.563Z,94.70
2018-03-24T06:00:01.471Z,94.60
2018-03-24T06:02:31.141Z,94.70
2018-03-24T06:05:01.412Z,94.50
2018-03-24T06:07:31.184Z,94.50
2018-03-24T06:10:02.035Z,94.40
2018-03-24T06:12:33.875Z,94.40
2018-03-24T06:15:03.722Z,94.40
2018-03-24T06:17:35.419Z,94.20
2018-03-24T06:20:05.575Z,94.20
2018-03-24T06:22:36.154Z,94.40
2018-03-24T06:25:06.113Z,94.40
2018-03-24T06:27:36.342Z,94.30
2018-03-24T06:30:07.154Z,94.00
2018-03-24T06:32:37.344Z,94.00
2018-03-24T06:35:07.155Z,93.80
2018-03-24T06:37:37.512Z,93.70
2018-03-24T06:40:07.484Z,93.10
2018-03-24T06:42:37.987Z,92.80
2018-03-24T06:45:11.134Z,92.60
2018-03-24T06:47:41.561Z,92.50
2018-03-24T06:50:11.887Z,92.60
2018-03-24T06:52:42.613Z,92.70
2018-03-24T06:55:13.663Z,92.50
2018-03-24T06:57:45.115Z,92.50
2018-03-24T07:00:15.461Z,92.40
2018-03-24T07:02:45.938Z,92.40
2018-03-24T07:05:16.180Z,92.60
2018-03-24T07:07:47.139Z,92.30
2018-03-24T07:10:17.539Z,92.10
2018-03-24T07:12:49.546Z,92.20
2018-03-24T07:15:20.783Z,91.90
2018-03-24T07:17:51.179Z,91.60
2018-03-24T07:20:23.084Z,91.40
2018-03-24T07:22:53.522Z,91.20
2018-03-24T07:25:24.705Z,90.80
2018-03-24T07:27:55.679Z,90.80
2018-03-24T07:30:26.008Z,90.50
2018-03-24T07:32:58.948Z,90.70
2018-03-24T07:35:32.462Z,90.60
2018-03-24T07:38:03.440Z,90.60
2018-03-24T07:40:34.642Z,90.60
2018-03-24T07:43:05.242Z,90.70
2018-03-24T07:45:36.242Z,90.70
2018-03-24T07:48:06.875Z,90.70
2018-03-24T07:50:37.373Z,90.50
2018-03-24T07:53:07.866Z,90.30
2018-03-24T07:55:38.944Z,89.50
2018-03-24T07:58:09.537Z,89.50
2018-03-24T08:00:41.031Z,88.40
2018-03-24T08:03:11.438Z,88.40
2018-03-24T08:05:42.528Z,87.80
2018-03-24T08:08:14.318Z,87.30
2018-03-24T08:10:49.290Z,87.30
2018-03-24T08:13:20.802Z,87.20
2018-03-24T08:15:51.435Z,86.70
2018-03-24T08:18:24.468Z,86.60
2018-03-24T08:20:55.987Z,86.50
2018-03-24T08:23:27.488Z,85.80
2018-03-24T08:25:58.031Z,85.70
2018-03-24T08:28:29.408Z,84.80
2018-03-24T08:31:00.806Z,84.40
2018-03-24T08:33:31.566Z,84.40
2018-03-24T08:36:02.526Z,84.10
2018-03-24T08:38:33.752Z,82.90
2018-03-24T08:41:04.638Z,82.90
2018-03-24T08:43:35.142Z,81.90
2018-03-24T08:46:07.111Z,81.60
2018-03-24T08:48:37.819Z,81.60
2018-03-24T08:51:09.232Z,80.40
2018-03-24T08:53:40.957Z,79.90
2018-03-24T08:56:12.543Z,79.30
2018-03-24T08:58:44.368Z,79.30
2018-03-24T09:01:15.201Z,79.20
2018-03-24T09:03:45.544Z,74.90
2018-03-24T09:06:16.043Z,70.90
2018-03-24T09:08:47.329Z,67.20
2018-03-24T09:11:20.120Z,65.90
2018-03-24T09:13:51.336Z,65.80
2018-03-24T09:16:21.735Z,65.10
2018-03-24T09:18:52.045Z,64.40
2018-03-24T09:21:22.866Z,64.60
2018-03-24T09:23:53.516Z,64.50
2018-03-24T09:26:27.042Z,64.90
2018-03-24T09:28:57.314Z,67.00
2018-03-24T09:31:30.282Z,64.30
2018-03-24T09:34:00.788Z,64.20
2018-03-24T09:36:34.091Z,61.60
2018-03-24T09:39:04.921Z,60.40
2018-03-24T09:41:36.252Z,59.20
2018-03-24T09:44:07.579Z,56.90
2018-03-24T09:46:41.486Z,55.80
2018-03-24T09:49:18.198Z,55.80
2018-03-24T09:51:49.659Z,53.00
2018-03-24T09:54:22.635Z,52.20
2018-03-24T09:56:54.059Z,52.90
2018-03-24T09:59:39.308Z,51.30
2018-03-24T10:02:10.956Z,51.30
2018-03-24T10:04:44.369Z,50.40
2018-03-24T10:07:19.362Z,49.60
2018-03-24T10:09:53.463Z,49.50
2018-03-24T10:12:26.144Z,47.50
2018-03-24T10:14:57.522Z,47.40
2018-03-24T10:17:32.257Z,46.60
2018-03-24T10:20:06.983Z,44.80
2018-03-24T10:22:46.673Z,44.20
2018-03-24T10:25:17.939Z,43.70
2018-03-24T10:27:48.786Z,44.40
2018-03-24T10:30:20.006Z,45.00
2018-03-24T10:32:50.826Z,44.10
2018-03-24T10:35:21.150Z,44.10
2018-03-24T10:37:55.532Z,42.80
2018-03-24T10:40:25.983Z,41.60
2018-03-24T10:43:03.235Z,41.00
2018-03-24T10:45:35.402Z,41.00
2018-03-24T10:48:13.811Z,38.50
2018-03-24T10:50:56.867Z,37.30
2018-03-24T10:53:49.344Z,38.40
2018-03-24T10:56:30.050Z,39.90
2018-03-24T10:59:00.414Z,39.90
2018-03-24T11:01:33.998Z,40.50
2018-03-24T11:04:05.542Z,41.80
2018-03-24T11:06:38.521Z,40.20
2018-03-24T11:09:09.718Z,40.20
2018-03-24T11:11:41.574Z,36.90
2018-03-24T11:14:13.967Z,35.00
2018-03-24T11:16:45.558Z,35.30
2018-03-24T11:19:16.258Z,35.30
2018-03-24T11:21:47.571Z,37.90
2018-03-24T11:24:17.742Z,37.80
2018-03-24T11:26:48.166Z,36.90
2018-03-24T11:29:18.384Z,36.80
2018-03-24T11:31:48.571Z,37.60
2018-03-24T11:34:24.580Z,36.50
2018-03-24T11:36:56.867Z,35.00
2018-03-24T11:39:30.235Z,35.00
2018-03-24T11:42:00.601Z,36.10
2018-03-24T11:44:33.322Z,33.00
2018-03-24T11:47:12.535Z,30.70
2018-03-24T11:49:43.366Z,30.70
2018-03-24T11:52:14.463Z,30.80
2018-03-24T11:54:46.424Z,31.40
2018-03-24T11:57:24.273Z,32.60
2018-03-24T11:59:56.483Z,32.00
2018-03-24T12:02:26.748Z,31.80
2018-03-24T12:04:57.447Z,30.50
2018-03-24T12:07:28.472Z,31.60
2018-03-24T12:09:59.919Z,30.60
2018-03-24T12:12:33.931Z,31.00
2018-03-24T12:15:05.213Z,30.90
2018-03-24T12:17:35.957Z,30.10
2018-03-24T12:20:08.912Z,29.80
2018-03-24T12:22:39.946Z,29.70
2018-03-24T12:25:11.374Z,30.00
2018-03-24T12:27:50.908Z,30.00
2018-03-24T12:30:31.851Z,29.90
2018-03-24T12:33:02.896Z,28.80
2018-03-24T12:35:33.575Z,30.00
2018-03-24T12:38:04.464Z,31.10
2018-03-24T12:40:35.916Z,32.60
2018-03-24T12:43:11.557Z,33.10
2018-03-24T12:45:44.866Z,33.60
2018-03-24T12:48:16.982Z,33.70
2018-03-24T12:50:48.238Z,30.10
2018-03-24T12:53:18.387Z,30.10
2018-03-24T12:55:53.152Z,29.90
2018-03-24T12:58:26.299Z,30.20
2018-03-24T13:01:04.602Z,30.20
2018-03-24T13:03:40.414Z,30.10
2018-03-24T13:06:12.240Z,28.80
2018-03-24T13:08:44.631Z,30.80
2018-03-24T13:11:21.225Z,30.50
2018-03-24T13:13:58.664Z,30.30
2018-03-24T13:16:35.817Z,31.50
2018-03-24T13:19:12.424Z,32.70
2018-03-24T13:21:44.808Z,32.70
2018-03-24T13:24:22.207Z,33.80
2018-03-24T13:27:02.451Z,32.60
2018-03-24T13:29:43.481Z,32.60
2018-03-24T13:32:18.591Z,32.10
2018-03-24T13:34:52.187Z,30.40
2018-03-24T13:37:37.551Z,30.40
2018-03-24T13:40:38.574Z,31.40
2018-03-24T13:43:24.003Z,31.40
2018-03-24T13:46:10.885Z,30.60
2018-03-24T13:48:46.439Z,30.50
2018-03-24T13:51:18.892Z,29.50
2018-03-24T13:53:55.625Z,31.20
2018-03-24T13:56:25.955Z,32.90
2018-03-24T13:58:57.921Z,32.50
2018-03-24T14:01:30.310Z,32.10
2018-03-24T14:06:43.134Z,36.60
2018-03-24T14:09:13.744Z,38.80
2018-03-24T14:11:44.821Z,38.40
2018-03-24T14:14:15.430Z,36.00
2018-03-24T14:16:46.310Z,37.70
2018-03-24T14:19:18.987Z,37.00
2018-03-24T14:21:54.305Z,39.30
2018-03-24T14:24:28.087Z,40.00
2018-03-24T14:27:00.016Z,41.00
2018-03-24T14:29:30.899Z,41.30
2018-03-24T14:32:01.706Z,41.40
2018-03-24T14:34:32.722Z,41.70
2018-03-24T14:37:03.103Z,42.20
2018-03-24T14:39:36.759Z,42.00
2018-03-24T14:42:07.571Z,41.60
2018-03-24T14:44:39.129Z,41.30
2018-03-24T14:47:10.405Z,41.40
2018-03-24T14:49:41.050Z,41.70
2018-03-24T14:52:11.916Z,42.20
2018-03-24T14:54:42.961Z,42.30
2018-03-24T14:57:17.315Z,42.80
2018-03-24T14:59:53.920Z,42.80
2018-03-24T15:02:26.171Z,43.20
2018-03-24T15:05:01.684Z,43.30
2018-03-24T15:07:35.430Z,43.30
2018-03-24T15:10:07.099Z,43.20
2018-03-24T15:12:39.446Z,43.20
2018-03-24T15:15:09.534Z,43.10
2018-03-24T15:17:39.839Z,43.10
2018-03-24T15:20:11.022Z,43.20
2018-03-24T15:22:42.458Z,43.20
2018-03-24T15:25:17.311Z,43.10
2018-03-24T15:27:50.101Z,43.00
2018-03-24T15:30:31.004Z,43.20
2018-03-24T15:33:10.214Z,43.40
2018-03-24T15:35:41.378Z,43.90
2018-03-24T15:38:11.914Z,43.90
2018-03-24T15:40:45.133Z,44.30
2018-03-24T15:43:18.549Z,43.70
2018-03-24T15:45:49.870Z,44.00
2018-03-24T15:48:24.174Z,43.50
2018-03-24T15:50:57.697Z,43.40
2018-03-24T15:53:27.826Z,43.40
2018-03-24T15:55:59.501Z,43.90
2018-03-24T15:58:30.324Z,43.50
2018-03-24T16:01:00.530Z,43.30
2018-03-24T16:03:31.893Z,43.30
2018-03-24T16:06:02.348Z,43.20
2018-03-24T16:08:33.836Z,43.00
2018-03-24T16:11:05.517Z,43.20
2018-03-24T16:13:35.956Z,42.80
2018-03-24T16:16:06.764Z,42.60
2018-03-24T16:18:38.813Z,42.70
2018-03-24T16:21:09.226Z,42.70
2018-03-24T16:23:42.598Z,42.50
2018-03-24T16:26:49.199Z,43.00
2018-03-24T16:29:19.973Z,42.70
2018-03-24T16:31:50.521Z,42.70
2018-03-24T16:34:20.834Z,42.40
2018-03-24T16:36:51.358Z,42.60
2018-03-24T16:39:22.647Z,42.20
2018-03-24T16:41:53.242Z,42.30
2018-03-24T16:44:24.954Z,42.80
2018-03-24T16:47:01.459Z,42.80
2018-03-24T16:50:03.728Z,42.80
2018-03-24T16:52:35.163Z,42.80
2018-03-24T16:55:14.067Z,42.70
2018-03-24T16:57:45.288Z,43.10
2018-03-24T17:00:15.614Z,43.10
2018-03-24T17:02:45.885Z,43.00
2018-03-24T17:05:16.369Z,43.20
2018-03-24T17:07:46.689Z,43.30
2018-03-24T17:10:19.044Z,43.80
2018-03-24T17:12:49.336Z,43.80
2018-03-24T17:15:20.062Z,43.70
2018-03-24T17:17:50.534Z,43.90
2018-03-24T17:20:23.232Z,43.90
2018-03-24T17:22:54.056Z,43.80
2018-03-24T17:25:25.248Z,44.00
2018-03-24T17:27:59.850Z,43.80
2018-03-24T17:30:30.572Z,43.90
2018-03-24T17:33:02.047Z,43.20
2018-03-24T17:35:32.379Z,43.10
2018-03-24T17:38:02.923Z,42.90
2018-03-24T17:40:35.526Z,43.60
2018-03-24T17:43:07.564Z,43.90
2018-03-24T17:45:38.985Z,43.90
2018-03-24T17:48:10.399Z,44.00
2018-03-24T17:50:46.043Z,44.30
2018-03-24T17:53:17.123Z,44.30
2018-03-24T17:55:50.673Z,44.50
2018-03-24T17:58:21.983Z,45.00
2018-03-24T18:00:52.393Z,45.20
2018-03-24T18:03:26.875Z,45.80
2018-03-24T18:06:05.695Z,46.00
2018-03-24T18:08:40.675Z,46.40
2018-03-24T18:11:22.180Z,46.70
2018-03-24T18:13:52.781Z,46.50
2018-03-24T18:16:32.171Z,47.00
2018-03-24T18:19:23.116Z,47.40
2018-03-24T18:22:09.039Z,47.50
2018-03-24T18:24:41.353Z,48.00
2018-03-24T18:27:15.351Z,47.50
2018-03-24T18:29:48.321Z,48.10
2018-03-24T18:32:18.853Z,48.30
2018-03-24T18:34:49.453Z,48.60
2018-03-24T18:37:22.311Z,48.60
2018-03-24T18:39:53.915Z,48.90
2018-03-24T18:42:33.184Z,48.70
2018-03-24T18:45:03.816Z,48.60
2018-03-24T18:47:35.005Z,49.00
2018-03-24T18:50:09.221Z,49.50
2018-03-24T18:52:45.317Z,49.30
2018-03-24T18:55:16.299Z,49.30
2018-03-24T18:57:50.466Z,49.70
2018-03-24T19:00:22.955Z,49.70
2018-03-24T19:02:55.495Z,49.70
2018-03-24T19:05:27.761Z,50.10
2018-03-24T19:08:07.944Z,51.00
2018-03-24T19:10:42.042Z,50.50
2018-03-24T19:13:19.614Z,51.20
2018-03-24T19:16:02.280Z,50.80
2018-03-24T19:18:38.817Z,51.20
2018-03-24T19:21:11.794Z,50.80
2018-03-24T19:23:51.137Z,51.00
2018-03-24T19:26:24.500Z,51.00
2018-03-24T19:29:04.879Z,50.90
2018-03-24T19:31:36.455Z,50.60
2018-03-24T19:34:07.677Z,51.40
2018-03-24T19:36:42.600Z,51.40
2018-03-24T19:39:16.244Z,51.20
2018-03-24T19:41:46.302Z,51.70
2018-03-24T19:44:18.036Z,52.10
2018-03-24T19:46:53.731Z,52.00
2018-03-24T19:49:26.885Z,52.30
2018-03-24T19:51:59.074Z,52.60
2018-03-24T19:54:29.649Z,52.50
2018-03-24T19:57:05.188Z,53.10
2018-03-24T19:59:36.060Z,53.70
2018-03-24T20:02:14.650Z,53.40
2018-03-24T20:04:51.611Z,52.70
2018-03-24T20:07:34.597Z,53.50
2018-03-24T20:10:14.604Z,53.60
2018-03-24T20:12:48.228Z,53.40
2018-03-24T20:15:22.180Z,53.30
2018-03-24T20:18:06.911Z,53.60
2018-03-24T20:20:38.659Z,53.40
2018-03-24T20:26:05.076Z,54.20
2018-03-24T20:28:57.696Z,54.60
2018-03-24T20:31:43.581Z,54.70
2018-03-24T20:34:28.253Z,55.00
2018-03-24T20:37:03.984Z,54.80
2018-03-24T20:39:40.338Z,55.50
2018-03-24T20:42:18.125Z,55.90
2018-03-24T20:44:50.842Z,56.10
2018-03-24T20:47:22.383Z,56.70
2018-03-24T20:49:54.324Z,57.10
2018-03-24T20:52:27.624Z,56.90
2018-03-24T20:55:03.478Z,57.30
2018-03-24T20:57:49.558Z,57.70
2018-03-24T21:00:22.282Z,57.80
2018-03-24T21:02:53.581Z,58.10
2018-03-24T21:05:24.508Z,57.90
2018-03-24T21:07:58.640Z,58.00
2018-03-24T21:10:29.286Z,58.40
2018-03-24T21:13:00.374Z,58.80
2018-03-24T21:15:33.068Z,58.70
2018-03-24T21:18:07.840Z,59.00
2018-03-24T21:20:38.659Z,59.40
2018-03-24T21:23:13.796Z,59.70
2018-03-24T21:25:58.030Z,59.60
2018-03-24T21:28:33.436Z,60.00
2018-03-24T21:31:07.935Z,60.00
2018-03-24T21:33:42.391Z,61.20
2018-03-24T21:36:13.727Z,61.70
2018-03-24T21:38:45.989Z,63.20
2018-03-24T21:41:20.866Z,63.30
2018-03-24T21:43:58.558Z,63.20
2018-03-24T21:46:34.116Z,64.00
2018-03-24T21:49:05.146Z,63.60
2018-03-24T21:51:45.426Z,63.30
2018-03-24T21:54:23.632Z,63.70
2018-03-24T21:56:59.770Z,61.90
2018-03-24T21:59:37.165Z,61.90
2018-03-24T22:02:15.585Z,63.40
2018-03-24T22:04:46.900Z,62.30
2018-03-24T22:07:19.411Z,63.10
2018-03-24T22:09:51.775Z,63.00
2018-03-24T22:12:28.829Z,65.00
2018-03-24T22:15:01.418Z,65.40
2018-03-24T22:17:32.049Z,65.40
2018-03-24T22:20:05.882Z,64.50
2018-03-24T22:22:50.201Z,64.60
2018-03-24T22:25:26.509Z,64.60
2018-03-24T22:27:57.970Z,64.80
2018-03-24T22:30:29.785Z,65.20
2018-03-24T22:33:00.916Z,65.40
2018-03-24T22:35:32.120Z,65.90
2018-03-24T22:38:04.452Z,66.20
2018-03-24T22:40:36.501Z,66.80
2018-03-24T22:43:18.299Z,67.50
2018-03-24T22:45:48.958Z,68.20
2018-03-24T22:48:20.095Z,68.40
2018-03-24T22:50:58.551Z,68.20
2018-03-24T22:53:35.256Z,68.30
2018-03-24T22:56:07.938Z,68.70
2018-03-24T22:58:41.654Z,68.70
2018-03-24T23:01:13.567Z,68.70
2018-03-24T23:03:45.217Z,68.70
2018-03-24T23:06:16.838Z,68.80
2018-03-24T23:08:50.993Z,68.80
2018-03-24T23:11:22.601Z,68.90
2018-03-24T23:13:56.757Z,69.20
2018-03-24T23:16:27.208Z,69.30
2018-03-24T23:19:02.076Z,70.00
2018-03-24T23:21:35.369Z,70.50
2018-03-24T23:24:09.345Z,70.50
2018-03-24T23:26:53.655Z,71.30
2018-03-24T23:29:29.876Z,71.30
2018-03-24T23:34:58.096Z,71.50
